sensor_id;sensor_type;location;lat;lon;timestamp;temperature;humidity
42615;DHT22;28754;47.700;7.924;2023-05-19T00:02:31;9.30;99.90
42615;DHT22;28754;47.700;7.924;2023-05-19T00:05:19;9.30;99.90
42615;DHT22;28754;47.700;7.924;2023-05-19T00:08:07;9.30;99.90
42615;DHT22;28754;47.700;7.924;2023-05-19T00:10:56;9.20;99.90
42615;DHT22;28754;47.700;7.924;2023-05-19T00:13:44;9.30;99.90
42615;DHT22;28754;47.700;7.924;2023-05-19T00:16:35;9.20;99.90
42615;DHT22;28754;47.700;7.924;2023-05-19T00:19:25;9.20;99.90
42615;DHT22;28754;47.700;7.924;2023-05-19T00:22:12;9.20;99.90
42615;DHT22;28754;47.700;7.924;2023-05-19T00:24:59;9.20;99.90
42615;DHT22;28754;47.700;7.924;2023-05-19T00:27:46;9.20;99.90
42615;DHT22;28754;47.700;7.924;2023-05-19T00:30:32;9.20;99.90
42615;DHT22;28754;47.700;7.924;2023-05-19T00:33:19;9.20;99.90
42615;DHT22;28754;47.700;7.924;2023-05-19T00:36:06;9.10;99.90
42615;DHT22;28754;47.700;7.924;2023-05-19T00:38:53;9.10;99.90
42615;DHT22;28754;47.700;7.924;2023-05-19T00:41:40;9.10;99.90
42615;DHT22;28754;47.700;7.924;2023-05-19T00:44:27;9.10;99.90
42615;DHT22;28754;47.700;7.924;2023-05-19T00:47:14;9.10;99.90
42615;DHT22;28754;47.700;7.924;2023-05-19T00:50:00;9.10;99.90
42615;DHT22;28754;47.700;7.924;2023-05-19T00:52:47;9.00;99.90
42615;DHT22;28754;47.700;7.924;2023-05-19T00:55:36;9.00;99.90
42615;DHT22;28754;47.700;7.924;2023-05-19T00:58:26;9.00;99.90
42615;DHT22;28754;47.700;7.924;2023-05-19T01:01:15;9.00;99.90
42615;DHT22;28754;47.700;7.924;2023-05-19T01:04:02;9.00;99.90
42615;DHT22;28754;47.700;7.924;2023-05-19T01:06:50;9.00;99.90
42615;DHT22;28754;47.700;7.924;2023-05-19T01:09:40;9.00;99.90
42615;DHT22;28754;47.700;7.924;2023-05-19T01:12:28;9.00;99.90
42615;DHT22;28754;47.700;7.924;2023-05-19T01:15:15;9.00;99.90
42615;DHT22;28754;47.700;7.924;2023-05-19T01:18:10;8.90;99.90
42615;DHT22;28754;47.700;7.924;2023-05-19T01:31:16;9.00;99.90
42615;DHT22;28754;47.700;7.924;2023-05-19T01:34:11;9.00;99.90
42615;DHT22;28754;47.700;7.924;2023-05-19T01:37:00;9.00;99.90
42615;DHT22;28754;47.700;7.924;2023-05-19T01:39:47;9.00;99.90
42615;DHT22;28754;47.700;7.924;2023-05-19T01:42:37;8.90;99.90
42615;DHT22;28754;47.700;7.924;2023-05-19T01:45:27;8.90;99.90
42615;DHT22;28754;47.700;7.924;2023-05-19T01:48:15;8.90;99.90
42615;DHT22;28754;47.700;7.924;2023-05-19T01:51:04;8.90;99.90
42615;DHT22;28754;47.700;7.924;2023-05-19T01:53:51;8.90;99.90
42615;DHT22;28754;47.700;7.924;2023-05-19T01:56:56;8.90;99.90
42615;DHT22;28754;47.700;7.924;2023-05-19T01:59:59;8.90;99.90
42615;DHT22;28754;47.700;7.924;2023-05-19T02:03:13;8.90;99.90
42615;DHT22;28754;47.700;7.924;2023-05-19T02:10:14;8.80;99.90
42615;DHT22;28754;47.700;7.924;2023-05-19T02:13:10;8.90;99.90
42615;DHT22;28754;47.700;7.924;2023-05-19T02:16:03;8.80;99.90
42615;DHT22;28754;47.700;7.924;2023-05-19T02:18:51;8.80;99.90
42615;DHT22;28754;47.700;7.924;2023-05-19T02:21:39;8.80;99.90
42615;DHT22;28754;47.700;7.924;2023-05-19T02:24:25;8.80;99.90
42615;DHT22;28754;47.700;7.924;2023-05-19T02:27:12;8.80;99.90
42615;DHT22;28754;47.700;7.924;2023-05-19T02:29:59;8.80;99.90
42615;DHT22;28754;47.700;7.924;2023-05-19T02:32:45;8.80;99.90
42615;DHT22;28754;47.700;7.924;2023-05-19T02:35:32;8.80;99.90
42615;DHT22;28754;47.700;7.924;2023-05-19T02:38:19;8.70;99.90
42615;DHT22;28754;47.700;7.924;2023-05-19T02:41:06;8.80;99.90
42615;DHT22;28754;47.700;7.924;2023-05-19T02:43:53;8.70;99.90
42615;DHT22;28754;47.700;7.924;2023-05-19T02:46:39;8.80;99.90
42615;DHT22;28754;47.700;7.924;2023-05-19T02:49:26;8.80;99.90
42615;DHT22;28754;47.700;7.924;2023-05-19T02:52:16;8.80;99.90
42615;DHT22;28754;47.700;7.924;2023-05-19T02:55:03;8.80;99.90
42615;DHT22;28754;47.700;7.924;2023-05-19T02:57:50;8.80;99.90
42615;DHT22;28754;47.700;7.924;2023-05-19T03:00:36;8.80;99.90
42615;DHT22;28754;47.700;7.924;2023-05-19T03:03:23;8.80;99.90
42615;DHT22;28754;47.700;7.924;2023-05-19T03:06:10;8.80;99.90
42615;DHT22;28754;47.700;7.924;2023-05-19T03:08:58;8.80;99.90
42615;DHT22;28754;47.700;7.924;2023-05-19T03:11:44;8.80;99.90
42615;DHT22;28754;47.700;7.924;2023-05-19T03:14:32;8.80;99.90
42615;DHT22;28754;47.700;7.924;2023-05-19T03:17:19;8.80;99.90
42615;DHT22;28754;47.700;7.924;2023-05-19T03:20:07;8.80;99.90
42615;DHT22;28754;47.700;7.924;2023-05-19T03:22:53;8.80;99.90
42615;DHT22;28754;47.700;7.924;2023-05-19T03:25:41;8.80;99.90
42615;DHT22;28754;47.700;7.924;2023-05-19T03:28:27;8.80;99.90
42615;DHT22;28754;47.700;7.924;2023-05-19T03:31:14;8.80;99.90
42615;DHT22;28754;47.700;7.924;2023-05-19T03:34:01;8.80;99.90
42615;DHT22;28754;47.700;7.924;2023-05-19T03:36:48;8.80;99.90
42615;DHT22;28754;47.700;7.924;2023-05-19T03:39:36;8.80;99.90
42615;DHT22;28754;47.700;7.924;2023-05-19T03:42:22;8.80;99.90
42615;DHT22;28754;47.700;7.924;2023-05-19T03:45:09;8.80;99.90
42615;DHT22;28754;47.700;7.924;2023-05-19T03:47:56;8.80;99.90
42615;DHT22;28754;47.700;7.924;2023-05-19T03:51:06;8.80;99.90
42615;DHT22;28754;47.700;7.924;2023-05-19T03:53:54;8.80;99.90
42615;DHT22;28754;47.700;7.924;2023-05-19T03:56:41;8.80;99.90
42615;DHT22;28754;47.700;7.924;2023-05-19T03:59:28;8.90;99.90
42615;DHT22;28754;47.700;7.924;2023-05-19T04:02:15;8.90;99.90
42615;DHT22;28754;47.700;7.924;2023-05-19T04:05:02;8.90;99.90
42615;DHT22;28754;47.700;7.924;2023-05-19T04:07:50;8.90;99.90
42615;DHT22;28754;47.700;7.924;2023-05-19T04:10:37;8.90;99.90
42615;DHT22;28754;47.700;7.924;2023-05-19T04:13:23;8.90;99.90
42615;DHT22;28754;47.700;7.924;2023-05-19T04:16:11;8.90;99.90
42615;DHT22;28754;47.700;7.924;2023-05-19T04:18:58;8.90;99.90
42615;DHT22;28754;47.700;7.924;2023-05-19T04:21:45;8.90;99.90
42615;DHT22;28754;47.700;7.924;2023-05-19T04:24:32;8.90;99.90
42615;DHT22;28754;47.700;7.924;2023-05-19T04:27:19;9.00;99.90
42615;DHT22;28754;47.700;7.924;2023-05-19T04:30:08;9.00;99.90
42615;DHT22;28754;47.700;7.924;2023-05-19T04:32:55;9.00;99.90
42615;DHT22;28754;47.700;7.924;2023-05-19T04:35:44;9.10;99.90
42615;DHT22;28754;47.700;7.924;2023-05-19T04:38:32;9.10;99.90
42615;DHT22;28754;47.700;7.924;2023-05-19T04:41:20;9.10;99.90
42615;DHT22;28754;47.700;7.924;2023-05-19T04:44:07;9.10;99.90
42615;DHT22;28754;47.700;7.924;2023-05-19T04:46:58;9.20;99.90
42615;DHT22;28754;47.700;7.924;2023-05-19T04:49:46;9.20;99.90
42615;DHT22;28754;47.700;7.924;2023-05-19T04:52:33;9.20;99.90
42615;DHT22;28754;47.700;7.924;2023-05-19T04:55:21;9.20;99.90
42615;DHT22;28754;47.700;7.924;2023-05-19T04:58:09;9.20;99.90
42615;DHT22;28754;47.700;7.924;2023-05-19T05:00:56;9.30;99.90
42615;DHT22;28754;47.700;7.924;2023-05-19T05:03:43;9.20;99.90
42615;DHT22;28754;47.700;7.924;2023-05-19T05:06:31;9.30;99.90
42615;DHT22;28754;47.700;7.924;2023-05-19T05:09:18;9.30;99.90
42615;DHT22;28754;47.700;7.924;2023-05-19T05:12:05;9.30;99.90
42615;DHT22;28754;47.700;7.924;2023-05-19T05:14:54;9.30;99.90
42615;DHT22;28754;47.700;7.924;2023-05-19T05:17:41;9.40;99.90
42615;DHT22;28754;47.700;7.924;2023-05-19T05:20:29;9.40;99.90
42615;DHT22;28754;47.700;7.924;2023-05-19T05:23:16;9.50;99.90
42615;DHT22;28754;47.700;7.924;2023-05-19T05:26:11;9.50;99.90
42615;DHT22;28754;47.700;7.924;2023-05-19T05:29:03;9.50;99.90
42615;DHT22;28754;47.700;7.924;2023-05-19T05:31:50;9.60;99.90
42615;DHT22;28754;47.700;7.924;2023-05-19T05:34:37;9.70;99.90
42615;DHT22;28754;47.700;7.924;2023-05-19T05:37:25;9.80;99.90
42615;DHT22;28754;47.700;7.924;2023-05-19T05:40:12;9.80;99.90
42615;DHT22;28754;47.700;7.924;2023-05-19T05:42:59;9.90;99.90
42615;DHT22;28754;47.700;7.924;2023-05-19T05:45:49;10.00;99.90
42615;DHT22;28754;47.700;7.924;2023-05-19T05:48:36;10.10;99.90
42615;DHT22;28754;47.700;7.924;2023-05-19T05:51:24;10.20;99.90
42615;DHT22;28754;47.700;7.924;2023-05-19T05:54:12;10.20;99.90
42615;DHT22;28754;47.700;7.924;2023-05-19T05:57:05;10.40;99.90
42615;DHT22;28754;47.700;7.924;2023-05-19T05:59:52;10.60;99.90
42615;DHT22;28754;47.700;7.924;2023-05-19T06:02:40;10.60;99.90
42615;DHT22;28754;47.700;7.924;2023-05-19T06:05:28;10.80;99.90
42615;DHT22;28754;47.700;7.924;2023-05-19T06:08:16;11.00;99.90
42615;DHT22;28754;47.700;7.924;2023-05-19T06:11:04;11.30;99.90
42615;DHT22;28754;47.700;7.924;2023-05-19T06:13:55;11.30;99.90
42615;DHT22;28754;47.700;7.924;2023-05-19T06:17:00;11.60;99.90
42615;DHT22;28754;47.700;7.924;2023-05-19T06:19:48;11.80;99.90
42615;DHT22;28754;47.700;7.924;2023-05-19T06:22:35;11.70;99.90
42615;DHT22;28754;47.700;7.924;2023-05-19T06:25:23;11.90;99.90
42615;DHT22;28754;47.700;7.924;2023-05-19T06:28:11;12.00;99.90
42615;DHT22;28754;47.700;7.924;2023-05-19T06:30:59;12.00;99.90
42615;DHT22;28754;47.700;7.924;2023-05-19T06:34:04;11.70;99.90
42615;DHT22;28754;47.700;7.924;2023-05-19T06:36:52;11.80;99.90
42615;DHT22;28754;47.700;7.924;2023-05-19T06:39:39;11.90;99.90
42615;DHT22;28754;47.700;7.924;2023-05-19T06:42:26;12.00;99.90
42615;DHT22;28754;47.700;7.924;2023-05-19T06:45:32;12.10;99.90
42615;DHT22;28754;47.700;7.924;2023-05-19T06:48:21;12.10;99.90
42615;DHT22;28754;47.700;7.924;2023-05-19T06:51:08;12.00;99.90
42615;DHT22;28754;47.700;7.924;2023-05-19T06:53:57;12.00;99.90
42615;DHT22;28754;47.700;7.924;2023-05-19T06:56:44;12.10;99.90
42615;DHT22;28754;47.700;7.924;2023-05-19T06:59:31;12.30;99.90
42615;DHT22;28754;47.700;7.924;2023-05-19T07:02:18;12.50;99.90
42615;DHT22;28754;47.700;7.924;2023-05-19T07:05:05;12.60;99.90
42615;DHT22;28754;47.700;7.924;2023-05-19T07:07:54;12.70;99.90
42615;DHT22;28754;47.700;7.924;2023-05-19T07:10:44;12.70;99.90
42615;DHT22;28754;47.700;7.924;2023-05-19T07:13:34;12.80;99.90
42615;DHT22;28754;47.700;7.924;2023-05-19T07:16:21;12.80;99.90
42615;DHT22;28754;47.700;7.924;2023-05-19T07:19:07;12.90;99.90
42615;DHT22;28754;47.700;7.924;2023-05-19T07:21:54;13.10;99.90
42615;DHT22;28754;47.700;7.924;2023-05-19T07:24:42;13.30;99.90
42615;DHT22;28754;47.700;7.924;2023-05-19T07:27:28;13.30;99.90
42615;DHT22;28754;47.700;7.924;2023-05-19T07:30:15;13.20;99.90
42615;DHT22;28754;47.700;7.924;2023-05-19T07:33:02;13.30;99.90
42615;DHT22;28754;47.700;7.924;2023-05-19T07:35:49;13.50;99.90
42615;DHT22;28754;47.700;7.924;2023-05-19T07:38:36;13.50;99.90
42615;DHT22;28754;47.700;7.924;2023-05-19T07:41:24;13.60;99.90
42615;DHT22;28754;47.700;7.924;2023-05-19T07:44:11;13.80;99.90
42615;DHT22;28754;47.700;7.924;2023-05-19T07:46:58;13.90;99.90
42615;DHT22;28754;47.700;7.924;2023-05-19T07:49:44;14.10;99.90
42615;DHT22;28754;47.700;7.924;2023-05-19T07:52:31;14.00;99.90
42615;DHT22;28754;47.700;7.924;2023-05-19T07:55:18;14.40;99.90
42615;DHT22;28754;47.700;7.924;2023-05-19T07:58:08;14.60;99.90
42615;DHT22;28754;47.700;7.924;2023-05-19T08:00:58;14.70;99.90
42615;DHT22;28754;47.700;7.924;2023-05-19T08:03:45;14.50;99.90
42615;DHT22;28754;47.700;7.924;2023-05-19T08:06:32;14.80;99.90
42615;DHT22;28754;47.700;7.924;2023-05-19T08:09:18;15.00;99.90
42615;DHT22;28754;47.700;7.924;2023-05-19T08:12:05;14.80;99.90
42615;DHT22;28754;47.700;7.924;2023-05-19T08:14:52;14.90;99.90
42615;DHT22;28754;47.700;7.924;2023-05-19T08:17:38;15.00;99.90
42615;DHT22;28754;47.700;7.924;2023-05-19T08:20:25;15.30;99.90
42615;DHT22;28754;47.700;7.924;2023-05-19T08:23:12;15.10;99.90
42615;DHT22;28754;47.700;7.924;2023-05-19T08:25:59;14.90;99.90
42615;DHT22;28754;47.700;7.924;2023-05-19T08:28:47;15.00;99.90
42615;DHT22;28754;47.700;7.924;2023-05-19T08:31:34;14.60;99.90
42615;DHT22;28754;47.700;7.924;2023-05-19T08:34:23;14.90;99.90
42615;DHT22;28754;47.700;7.924;2023-05-19T08:37:11;15.10;99.90
42615;DHT22;28754;47.700;7.924;2023-05-19T08:39:57;15.40;99.90
42615;DHT22;28754;47.700;7.924;2023-05-19T08:42:44;15.20;99.90
42615;DHT22;28754;47.700;7.924;2023-05-19T08:45:32;15.30;99.90
42615;DHT22;28754;47.700;7.924;2023-05-19T08:48:24;15.20;99.90
42615;DHT22;28754;47.700;7.924;2023-05-19T08:51:40;15.00;99.90
42615;DHT22;28754;47.700;7.924;2023-05-19T08:55:07;15.20;99.90
42615;DHT22;28754;47.700;7.924;2023-05-19T08:57:59;14.90;99.90
42615;DHT22;28754;47.700;7.924;2023-05-19T09:00:48;14.60;99.90
42615;DHT22;28754;47.700;7.924;2023-05-19T09:03:37;14.20;99.90
42615;DHT22;28754;47.700;7.924;2023-05-19T09:06:25;14.30;99.90
42615;DHT22;28754;47.700;7.924;2023-05-19T09:09:12;14.40;99.90
42615;DHT22;28754;47.700;7.924;2023-05-19T09:11:59;14.60;99.90
42615;DHT22;28754;47.700;7.924;2023-05-19T09:14:46;14.80;99.90
42615;DHT22;28754;47.700;7.924;2023-05-19T09:17:33;15.00;99.90
42615;DHT22;28754;47.700;7.924;2023-05-19T09:20:21;15.20;99.90
42615;DHT22;28754;47.700;7.924;2023-05-19T09:23:15;15.30;99.90
42615;DHT22;28754;47.700;7.924;2023-05-19T09:26:04;15.10;99.90
42615;DHT22;28754;47.700;7.924;2023-05-19T09:28:57;15.10;99.90
42615;DHT22;28754;47.700;7.924;2023-05-19T09:31:51;15.20;99.90
42615;DHT22;28754;47.700;7.924;2023-05-19T09:34:40;15.00;99.90
42615;DHT22;28754;47.700;7.924;2023-05-19T09:37:27;15.00;99.90
42615;DHT22;28754;47.700;7.924;2023-05-19T09:40:15;15.10;99.90
42615;DHT22;28754;47.700;7.924;2023-05-19T09:43:04;15.10;99.90
42615;DHT22;28754;47.700;7.924;2023-05-19T09:46:04;15.30;99.90
42615;DHT22;28754;47.700;7.924;2023-05-19T09:48:57;15.60;99.90
42615;DHT22;28754;47.700;7.924;2023-05-19T09:51:44;15.40;99.90
42615;DHT22;28754;47.700;7.924;2023-05-19T09:54:33;15.10;99.90
42615;DHT22;28754;47.700;7.924;2023-05-19T09:57:24;14.70;99.90
42615;DHT22;28754;47.700;7.924;2023-05-19T10:00:14;14.40;99.90
42615;DHT22;28754;47.700;7.924;2023-05-19T10:03:03;14.20;99.90
42615;DHT22;28754;47.700;7.924;2023-05-19T10:05:52;14.40;99.90
42615;DHT22;28754;47.700;7.924;2023-05-19T10:08:39;14.30;99.90
42615;DHT22;28754;47.700;7.924;2023-05-19T10:11:29;14.20;99.90
42615;DHT22;28754;47.700;7.924;2023-05-19T10:14:18;14.30;99.90
42615;DHT22;28754;47.700;7.924;2023-05-19T10:17:14;14.20;99.90
42615;DHT22;28754;47.700;7.924;2023-05-19T10:20:01;14.30;99.90
42615;DHT22;28754;47.700;7.924;2023-05-19T10:22:50;14.40;99.90
42615;DHT22;28754;47.700;7.924;2023-05-19T10:25:37;14.50;99.90
42615;DHT22;28754;47.700;7.924;2023-05-19T10:28:37;14.60;99.90
42615;DHT22;28754;47.700;7.924;2023-05-19T10:31:26;14.60;99.90
42615;DHT22;28754;47.700;7.924;2023-05-19T10:37:36;14.70;99.90
42615;DHT22;28754;47.700;7.924;2023-05-19T10:47:06;14.80;99.90
42615;DHT22;28754;47.700;7.924;2023-05-19T10:49:54;14.70;99.90
42615;DHT22;28754;47.700;7.924;2023-05-19T10:52:41;14.70;99.90
42615;DHT22;28754;47.700;7.924;2023-05-19T10:55:44;15.00;99.90
42615;DHT22;28754;47.700;7.924;2023-05-19T11:01:32;14.90;99.90
42615;DHT22;28754;47.700;7.924;2023-05-19T11:04:49;14.80;99.90
42615;DHT22;28754;47.700;7.924;2023-05-19T11:07:36;14.70;99.90
42615;DHT22;28754;47.700;7.924;2023-05-19T11:10:26;14.80;99.90
42615;DHT22;28754;47.700;7.924;2023-05-19T11:13:19;14.80;99.90
42615;DHT22;28754;47.700;7.924;2023-05-19T11:16:07;14.90;99.90
42615;DHT22;28754;47.700;7.924;2023-05-19T11:18:55;14.90;99.90
42615;DHT22;28754;47.700;7.924;2023-05-19T11:24:44;14.70;99.90
42615;DHT22;28754;47.700;7.924;2023-05-19T11:27:34;14.70;99.90
42615;DHT22;28754;47.700;7.924;2023-05-19T11:30:22;14.80;99.90
42615;DHT22;28754;47.700;7.924;2023-05-19T11:33:09;14.70;99.90
42615;DHT22;28754;47.700;7.924;2023-05-19T11:35:56;14.70;99.90
42615;DHT22;28754;47.700;7.924;2023-05-19T11:38:44;14.80;99.90
42615;DHT22;28754;47.700;7.924;2023-05-19T11:41:32;15.00;99.90
42615;DHT22;28754;47.700;7.924;2023-05-19T11:44:24;15.00;99.90
42615;DHT22;28754;47.700;7.924;2023-05-19T11:47:12;14.80;99.90
42615;DHT22;28754;47.700;7.924;2023-05-19T11:50:00;14.60;99.90
42615;DHT22;28754;47.700;7.924;2023-05-19T11:52:46;14.40;99.90
42615;DHT22;28754;47.700;7.924;2023-05-19T11:55:33;14.30;99.90
42615;DHT22;28754;47.700;7.924;2023-05-19T11:58:25;14.30;99.90
42615;DHT22;28754;47.700;7.924;2023-05-19T12:01:13;14.40;99.90
42615;DHT22;28754;47.700;7.924;2023-05-19T12:04:00;14.60;99.90
42615;DHT22;28754;47.700;7.924;2023-05-19T12:06:48;14.60;99.90
42615;DHT22;28754;47.700;7.924;2023-05-19T12:09:35;14.80;99.90
42615;DHT22;28754;47.700;7.924;2023-05-19T12:12:22;14.70;99.90
42615;DHT22;28754;47.700;7.924;2023-05-19T12:15:09;14.90;99.90
42615;DHT22;28754;47.700;7.924;2023-05-19T12:18:01;15.00;99.90
42615;DHT22;28754;47.700;7.924;2023-05-19T12:20:48;15.20;99.90
42615;DHT22;28754;47.700;7.924;2023-05-19T12:23:35;15.00;99.90
42615;DHT22;28754;47.700;7.924;2023-05-19T12:26:22;14.80;99.90
42615;DHT22;28754;47.700;7.924;2023-05-19T12:29:09;14.70;99.90
42615;DHT22;28754;47.700;7.924;2023-05-19T12:31:55;14.60;99.90
42615;DHT22;28754;47.700;7.924;2023-05-19T12:34:42;14.60;99.90
42615;DHT22;28754;47.700;7.924;2023-05-19T12:37:29;14.70;99.90
42615;DHT22;28754;47.700;7.924;2023-05-19T12:40:19;14.70;99.90
42615;DHT22;28754;47.700;7.924;2023-05-19T12:43:19;14.90;99.90
42615;DHT22;28754;47.700;7.924;2023-05-19T12:46:17;14.80;99.90
42615;DHT22;28754;47.700;7.924;2023-05-19T12:49:04;14.90;99.90
42615;DHT22;28754;47.700;7.924;2023-05-19T12:51:52;14.90;99.90
42615;DHT22;28754;47.700;7.924;2023-05-19T12:54:39;14.70;99.90
42615;DHT22;28754;47.700;7.924;2023-05-19T12:57:27;14.70;99.90
42615;DHT22;28754;47.700;7.924;2023-05-19T13:00:19;14.70;99.90
42615;DHT22;28754;47.700;7.924;2023-05-19T13:03:13;14.60;99.90
42615;DHT22;28754;47.700;7.924;2023-05-19T13:06:01;14.70;99.90
42615;DHT22;28754;47.700;7.924;2023-05-19T13:08:48;14.70;99.90
42615;DHT22;28754;47.700;7.924;2023-05-19T13:11:35;14.70;99.90
42615;DHT22;28754;47.700;7.924;2023-05-19T13:14:21;14.90;99.90
42615;DHT22;28754;47.700;7.924;2023-05-19T13:17:08;14.90;99.90
42615;DHT22;28754;47.700;7.924;2023-05-19T13:19:55;14.70;99.90
42615;DHT22;28754;47.700;7.924;2023-05-19T13:22:41;14.90;99.90
42615;DHT22;28754;47.700;7.924;2023-05-19T13:25:28;15.00;99.90
42615;DHT22;28754;47.700;7.924;2023-05-19T13:28:15;14.80;99.90
42615;DHT22;28754;47.700;7.924;2023-05-19T13:31:01;14.70;99.90
42615;DHT22;28754;47.700;7.924;2023-05-19T13:33:48;14.90;99.90
42615;DHT22;28754;47.700;7.924;2023-05-19T13:36:35;14.80;99.90
42615;DHT22;28754;47.700;7.924;2023-05-19T13:39:21;14.80;99.90
42615;DHT22;28754;47.700;7.924;2023-05-19T13:42:08;14.70;99.90
42615;DHT22;28754;47.700;7.924;2023-05-19T13:44:55;14.70;99.90
42615;DHT22;28754;47.700;7.924;2023-05-19T13:47:41;14.50;99.90
42615;DHT22;28754;47.700;7.924;2023-05-19T13:50:28;14.40;99.90
42615;DHT22;28754;47.700;7.924;2023-05-19T13:53:15;14.30;99.90
42615;DHT22;28754;47.700;7.924;2023-05-19T13:56:02;14.30;99.90
42615;DHT22;28754;47.700;7.924;2023-05-19T13:58:48;14.00;99.90
42615;DHT22;28754;47.700;7.924;2023-05-19T14:01:35;14.00;99.90
42615;DHT22;28754;47.700;7.924;2023-05-19T14:04:22;14.00;99.90
42615;DHT22;28754;47.700;7.924;2023-05-19T14:07:12;13.90;99.90
42615;DHT22;28754;47.700;7.924;2023-05-19T14:09:59;13.90;99.90
42615;DHT22;28754;47.700;7.924;2023-05-19T14:12:45;13.80;99.90
42615;DHT22;28754;47.700;7.924;2023-05-19T14:15:32;14.10;99.90
42615;DHT22;28754;47.700;7.924;2023-05-19T14:18:23;14.30;99.90
42615;DHT22;28754;47.700;7.924;2023-05-19T14:21:09;14.50;99.90
42615;DHT22;28754;47.700;7.924;2023-05-19T14:23:56;14.30;99.90
42615;DHT22;28754;47.700;7.924;2023-05-19T14:26:43;14.30;99.90
42615;DHT22;28754;47.700;7.924;2023-05-19T14:29:29;14.20;99.90
42615;DHT22;28754;47.700;7.924;2023-05-19T14:32:16;14.10;99.90
42615;DHT22;28754;47.700;7.924;2023-05-19T14:35:03;14.00;99.90
42615;DHT22;28754;47.700;7.924;2023-05-19T14:37:50;14.10;99.90
42615;DHT22;28754;47.700;7.924;2023-05-19T14:40:37;14.30;99.90
42615;DHT22;28754;47.700;7.924;2023-05-19T14:43:26;14.20;99.90
42615;DHT22;28754;47.700;7.924;2023-05-19T14:46:13;14.10;99.90
42615;DHT22;28754;47.700;7.924;2023-05-19T14:48:59;13.90;99.90
42615;DHT22;28754;47.700;7.924;2023-05-19T14:51:46;13.80;99.90
42615;DHT22;28754;47.700;7.924;2023-05-19T14:54:33;13.60;99.90
42615;DHT22;28754;47.700;7.924;2023-05-19T14:57:20;13.50;99.90
42615;DHT22;28754;47.700;7.924;2023-05-19T15:00:07;13.60;99.90
42615;DHT22;28754;47.700;7.924;2023-05-19T15:02:57;13.70;99.90
42615;DHT22;28754;47.700;7.924;2023-05-19T15:05:44;13.80;99.90
42615;DHT22;28754;47.700;7.924;2023-05-19T15:08:31;13.70;99.90
42615;DHT22;28754;47.700;7.924;2023-05-19T15:11:17;13.60;99.90
42615;DHT22;28754;47.700;7.924;2023-05-19T15:14:04;13.60;99.90
42615;DHT22;28754;47.700;7.924;2023-05-19T15:16:50;13.60;99.90
42615;DHT22;28754;47.700;7.924;2023-05-19T15:19:37;13.60;99.90
42615;DHT22;28754;47.700;7.924;2023-05-19T15:22:26;13.70;99.90
42615;DHT22;28754;47.700;7.924;2023-05-19T15:25:12;13.70;99.90
42615;DHT22;28754;47.700;7.924;2023-05-19T15:27:59;13.80;99.90
42615;DHT22;28754;47.700;7.924;2023-05-19T15:30:46;13.70;99.90
42615;DHT22;28754;47.700;7.924;2023-05-19T15:33:32;13.50;99.90
42615;DHT22;28754;47.700;7.924;2023-05-19T15:36:19;13.30;99.90
42615;DHT22;28754;47.700;7.924;2023-05-19T15:39:06;13.20;99.90
42615;DHT22;28754;47.700;7.924;2023-05-19T15:41:52;13.10;99.90
42615;DHT22;28754;47.700;7.924;2023-05-19T15:44:39;13.00;99.90
42615;DHT22;28754;47.700;7.924;2023-05-19T15:47:26;13.00;99.90
42615;DHT22;28754;47.700;7.924;2023-05-19T15:50:13;13.10;99.90
42615;DHT22;28754;47.700;7.924;2023-05-19T15:52:59;13.30;99.90
42615;DHT22;28754;47.700;7.924;2023-05-19T15:55:46;13.40;99.90
42615;DHT22;28754;47.700;7.924;2023-05-19T15:58:33;13.50;99.90
42615;DHT22;28754;47.700;7.924;2023-05-19T16:01:19;13.60;99.90
42615;DHT22;28754;47.700;7.924;2023-05-19T16:04:06;13.60;99.90
42615;DHT22;28754;47.700;7.924;2023-05-19T16:06:53;13.50;99.90
42615;DHT22;28754;47.700;7.924;2023-05-19T16:09:40;13.40;99.90
42615;DHT22;28754;47.700;7.924;2023-05-19T16:12:26;13.30;99.90
42615;DHT22;28754;47.700;7.924;2023-05-19T16:15:14;13.40;99.90
42615;DHT22;28754;47.700;7.924;2023-05-19T16:18:01;13.40;99.90
42615;DHT22;28754;47.700;7.924;2023-05-19T16:20:49;13.40;99.90
42615;DHT22;28754;47.700;7.924;2023-05-19T16:23:36;13.30;99.90
42615;DHT22;28754;47.700;7.924;2023-05-19T16:26:23;13.30;99.90
42615;DHT22;28754;47.700;7.924;2023-05-19T16:29:09;13.30;99.90
42615;DHT22;28754;47.700;7.924;2023-05-19T16:31:56;13.20;99.90
42615;DHT22;28754;47.700;7.924;2023-05-19T16:34:43;13.10;99.90
42615;DHT22;28754;47.700;7.924;2023-05-19T16:37:30;13.00;99.90
42615;DHT22;28754;47.700;7.924;2023-05-19T16:40:16;13.10;99.90
42615;DHT22;28754;47.700;7.924;2023-05-19T16:43:03;13.00;99.90
42615;DHT22;28754;47.700;7.924;2023-05-19T16:45:50;13.00;99.90
42615;DHT22;28754;47.700;7.924;2023-05-19T16:48:37;13.10;99.90
42615;DHT22;28754;47.700;7.924;2023-05-19T16:51:23;13.10;99.90
42615;DHT22;28754;47.700;7.924;2023-05-19T16:54:10;13.10;99.90
42615;DHT22;28754;47.700;7.924;2023-05-19T16:56:57;13.10;99.90
42615;DHT22;28754;47.700;7.924;2023-05-19T16:59:43;13.10;99.90
42615;DHT22;28754;47.700;7.924;2023-05-19T17:02:32;13.20;99.90
42615;DHT22;28754;47.700;7.924;2023-05-19T17:05:19;13.10;99.90
42615;DHT22;28754;47.700;7.924;2023-05-19T17:08:06;13.10;99.90
42615;DHT22;28754;47.700;7.924;2023-05-19T17:10:53;13.00;99.90
42615;DHT22;28754;47.700;7.924;2023-05-19T17:13:40;12.50;99.90
42615;DHT22;28754;47.700;7.924;2023-05-19T17:16:28;12.50;99.90
42615;DHT22;28754;47.700;7.924;2023-05-19T17:19:15;12.50;99.90
42615;DHT22;28754;47.700;7.924;2023-05-19T17:22:04;12.40;99.90
42615;DHT22;28754;47.700;7.924;2023-05-19T17:24:51;12.30;99.90
42615;DHT22;28754;47.700;7.924;2023-05-19T17:27:38;12.30;99.90
42615;DHT22;28754;47.700;7.924;2023-05-19T17:30:25;12.40;99.90
42615;DHT22;28754;47.700;7.924;2023-05-19T17:33:11;12.40;99.90
42615;DHT22;28754;47.700;7.924;2023-05-19T17:36:01;12.50;99.90
42615;DHT22;28754;47.700;7.924;2023-05-19T17:38:49;12.50;99.90
42615;DHT22;28754;47.700;7.924;2023-05-19T17:41:36;12.50;99.90
42615;DHT22;28754;47.700;7.924;2023-05-19T17:44:22;12.60;99.90
42615;DHT22;28754;47.700;7.924;2023-05-19T17:47:09;12.50;99.90
42615;DHT22;28754;47.700;7.924;2023-05-19T17:49:56;12.40;99.90
42615;DHT22;28754;47.700;7.924;2023-05-19T17:52:42;12.40;99.90
42615;DHT22;28754;47.700;7.924;2023-05-19T17:55:29;12.30;99.90
42615;DHT22;28754;47.700;7.924;2023-05-19T17:58:17;12.30;99.90
42615;DHT22;28754;47.700;7.924;2023-05-19T18:01:04;12.20;99.90
42615;DHT22;28754;47.700;7.924;2023-05-19T18:03:51;12.20;99.90
42615;DHT22;28754;47.700;7.924;2023-05-19T18:06:39;12.20;99.90
42615;DHT22;28754;47.700;7.924;2023-05-19T18:09:29;12.20;99.90
42615;DHT22;28754;47.700;7.924;2023-05-19T18:12:20;12.20;99.90
42615;DHT22;28754;47.700;7.924;2023-05-19T18:15:08;12.20;99.90
42615;DHT22;28754;47.700;7.924;2023-05-19T18:17:55;12.20;99.90
42615;DHT22;28754;47.700;7.924;2023-05-19T18:20:41;12.00;99.90